Bookmark and Share
Track history (hours):
 

Multratug 19

Last reported at 2014-Apr-17 03:34 UTC. Time now 2014-Apr-17 03:54 UTC.
Position N 51°20' E 003°49'.

Length 32 m; draft 5.5 m.

Type: Tug. MMSI: 245875000.

NotesDate/timePositionNaut miles runAvg speedWind from/ knotsBaromVisibWave heightAir tempDewpointWater temp
2014-Apr-17 03:34N 51°20' E 003°49'0 0.0
2014-Apr-17 02:34N 51°20' E 003°49'1 1.0
2014-Apr-17 01:33N 51°21' E 003°50'5 4.7
2014-Apr-17 00:33N 51°23' E 003°57'6 5.7
2014-Apr-16 23:33N 51°20' E 003°49'0 0.0
2014-Apr-16 22:34N 51°20' E 003°49'0 0.0
2014-Apr-16 21:34N 51°20' E 003°49'0 0.0
2014-Apr-16 20:33N 51°20' E 003°49'0 0.0
2014-Apr-16 19:34N 51°20' E 003°49'0 0.0
2014-Apr-16 18:34N 51°20' E 003°49'0 0.0
2014-Apr-16 17:33N 51°20' E 003°49'1 0.5
2014-Apr-16 16:34N 51°20' E 003°49'4 4.2
2014-Apr-16 15:33N 51°16' E 003°50'9 9.0
2014-Apr-16 14:34N 51°07' E 003°45'1 1.2
2014-Apr-16 13:33N 51°06' E 003°45'5 5.3
2014-Apr-16 12:33N 51°11' E 003°48'6 5.6
2014-Apr-16 11:33N 51°16' E 003°50'4 3.7
2014-Apr-16 10:33N 51°20' E 003°49'2 2.3
2014-Apr-16 09:33N 51°21' E 003°46'2 1.9
2014-Apr-16 08:34N 51°20' E 003°49'1 0.5
2014-Apr-16 07:33N 51°20' E 003°49'0 0.2
2014-Apr-16 06:34N 51°20' E 003°49'3 3.3
2014-Apr-16 05:33N 51°16' E 003°51'3 2.8
2014-Apr-16 04:33N 51°19' E 003°49'2 2.2
2014-Apr-16 03:34N 51°21' E 003°48'1 1.0
2014-Apr-16 02:34N 51°20' E 003°49'0 0.0
2014-Apr-16 01:34N 51°20' E 003°49'0 0.0
2014-Apr-16 00:34N 51°20' E 003°49'0 0.0
2014-Apr-15 23:34N 51°20' E 003°49'0 0.0
2014-Apr-15 22:34N 51°20' E 003°49'0 0.0
2014-Apr-15 21:34N 51°20' E 003°49'0 0.0
2014-Apr-15 20:34N 51°20' E 003°49'0 0.0
2014-Apr-15 19:34N 51°20' E 003°49'0 0.0
2014-Apr-15 18:33N 51°20' E 003°49'0 0.0
2014-Apr-15 17:34N 51°20' E 003°49'0 0.0
2014-Apr-15 16:34N 51°20' E 003°49'2 1.5
2014-Apr-15 15:34N 51°19' E 003°50'0 0.4
2014-Apr-15 14:33N 51°19' E 003°49'2 0.9
2014-Apr-15 12:34N 51°21' E 003°48'1 0.7
2014-Apr-15 11:34N 51°20' E 003°49'0 0.0
2014-Apr-15 10:34N 51°20' E 003°49'0 0.0
2014-Apr-15 09:34N 51°20' E 003°49'0 0.0
2014-Apr-15 08:34N 51°20' E 003°49'0 0.0
2014-Apr-15 07:34N 51°20' E 003°49'0 0.0
2014-Apr-15 06:34N 51°20' E 003°49'0 0.0
2014-Apr-15 05:34N 51°20' E 003°49'0 0.0
2014-Apr-15 03:34N 51°20' E 003°49'0 0.0
2014-Apr-15 02:34N 51°20' E 003°49'1 1.2
2014-Apr-15 01:34N 51°21' E 003°47'1 1.1
2014-Apr-15 00:34N 51°21' E 003°46'4 3.9
2014-Apr-14 23:34N 51°24' E 003°42'4 3.8
2014-Apr-14 22:34N 51°27' E 003°41'0 0.4
2014-Apr-14 21:34N 51°28' E 003°41'0 0.4
2014-Apr-14 20:34N 51°27' E 003°41'0 0.0
2014-Apr-14 19:34N 51°27' E 003°41'0 0.3
2014-Apr-14 18:34N 51°27' E 003°41'0 0.3
2014-Apr-14 17:34N 51°27' E 003°41'0 0.0
2014-Apr-14 16:34N 51°27' E 003°41'6 5.6
2014-Apr-14 15:34N 51°22' E 003°45'3 3.4
2014-Apr-14 14:34N 51°20' E 003°49'0 0.0
2014-Apr-14 13:34N 51°20' E 003°49'0 0.0
2014-Apr-14 11:34N 51°20' E 003°49'0 0.0
2014-Apr-14 10:34N 51°20' E 003°49'0 0.0
2014-Apr-14 09:34N 51°20' E 003°49'0 0.0
2014-Apr-14 08:34N 51°20' E 003°49'0 0.0
2014-Apr-14 07:34N 51°20' E 003°49'0 0.0
2014-Apr-14 06:34N 51°20' E 003°49'0 0.0
2014-Apr-14 05:34N 51°20' E 003°49'0 0.0
2014-Apr-13 22:34N 51°20' E 003°49'0 0.0
2014-Apr-13 21:34N 51°20' E 003°49'0 0.0
2014-Apr-13 20:34N 51°20' E 003°49'0 0.0
2014-Apr-13 19:33N 51°20' E 003°49'1 0.7
2014-Apr-13 18:34N 51°21' E 003°48'1 1.5
2014-Apr-13 17:34N 51°20' E 003°46'1 1.0
2014-Apr-13 16:34N 51°21' E 003°45'2 2.4
2014-Apr-13 15:34N 51°20' E 003°49'0 0.0
2014-Apr-13 14:34N 51°20' E 003°49'0 0.0
2014-Apr-13 13:34N 51°20' E 003°49'0 0.0
2014-Apr-13 12:34N 51°20' E 003°49'0 0.0
2014-Apr-13 11:33N 51°20' E 003°49'0 0.0
2014-Apr-13 10:34N 51°20' E 003°49'0 0.0
2014-Apr-13 09:34N 51°20' E 003°49'0 0.0
2014-Apr-13 08:34N 51°20' E 003°49'0 0.0
2014-Apr-13 07:33N 51°20' E 003°49'0 0.0
2014-Apr-13 06:33N 51°20' E 003°49'0 0.0
2014-Apr-13 05:34N 51°20' E 003°49'0 0.0
2014-Apr-13 04:33N 51°20' E 003°49'0 0.0
2014-Apr-13 03:34N 51°20' E 003°49'0 0.0
2014-Apr-13 02:34N 51°20' E 003°49'0 0.0
2014-Apr-13 01:34N 51°20' E 003°49'0 0.0
2014-Apr-13 00:34N 51°20' E 003°49'0 0.0
2014-Apr-12 23:34N 51°20' E 003°49'0 0.0
2014-Apr-12 22:34N 51°20' E 003°49'0 0.0
2014-Apr-12 21:33N 51°20' E 003°49'0 0.0
2014-Apr-12 20:34N 51°20' E 003°49'0 0.0
2014-Apr-12 19:34N 51°20' E 003°49'0 0.0
2014-Apr-12 18:34N 51°20' E 003°49'2 2.2
2014-Apr-12 17:33N 51°21' E 003°52'7 7.5
2014-Apr-12 16:34N 51°26' E 004°01'6 6.1
2014-Apr-12 15:33N 51°24' E 004°11'5 4.5
2014-Apr-12 14:33N 51°21' E 004°16'0 0.0
2014-Apr-12 13:33N 51°21' E 004°16'0 0.1
2014-Apr-12 12:33N 51°21' E 004°16'2 2.2
2014-Apr-12 11:33N 51°22' E 004°13'3 2.8
2014-Apr-12 10:33N 51°23' E 004°09'7 7.3
2014-Apr-12 09:34N 51°25' E 003°58'8 7.8
2014-Apr-12 08:34N 51°20' E 003°49'0 0.0
2014-Apr-12 07:34N 51°20' E 003°49'0 0.0
2014-Apr-12 06:34N 51°20' E 003°49'0 0.0
2014-Apr-12 05:33N 51°20' E 003°49'0 0.0
2014-Apr-12 04:34N 51°20' E 003°49'2 1.9
2014-Apr-12 03:34N 51°21' E 003°46'2 1.9
2014-Apr-12 02:34N 51°20' E 003°49'0 0.0
2014-Apr-12 01:34N 51°20' E 003°49'0 0.0
2014-Apr-12 00:34N 51°20' E 003°49'0 0.0
2014-Apr-11 23:34N 51°20' E 003°49'0 0.0
2014-Apr-11 22:34N 51°20' E 003°49'0 0.0
2014-Apr-11 21:34N 51°20' E 003°49'0 0.0
2014-Apr-11 20:34N 51°20' E 003°49'1 0.6
2014-Apr-11 19:34N 51°20' E 003°49'1 0.8
2014-Apr-11 18:33N 51°19' E 003°50'6 6.0
2014-Apr-11 17:33N 51°13' E 003°48'7 6.7
2014-Apr-11 16:33N 51°07' E 003°45'1 0.8
2014-Apr-11 15:33N 51°07' E 003°46'6 6.4
2014-Apr-11 14:33N 51°14' E 003°48'6 6.1
2014-Apr-11 13:33N 51°20' E 003°49'1 0.7
2014-Apr-11 12:34N 51°20' E 003°49'0 0.0
2014-Apr-11 11:34N 51°20' E 003°49'0 0.0
2014-Apr-11 10:34N 51°20' E 003°49'0 0.0
2014-Apr-11 09:34N 51°20' E 003°49'0 0.0
2014-Apr-11 08:34N 51°20' E 003°49'0 0.0
2014-Apr-11 07:33N 51°20' E 003°49'0 0.0
2014-Apr-11 06:34N 51°20' E 003°49'0 0.0
2014-Apr-11 05:34N 51°20' E 003°49'0 0.0
2014-Apr-11 04:34N 51°20' E 003°49'0 0.0
2014-Apr-11 03:34N 51°20' E 003°49'0 0.0
2014-Apr-11 02:34N 51°20' E 003°49'0 0.0
2014-Apr-11 01:34N 51°20' E 003°49'0 0.0
2014-Apr-11 00:34N 51°20' E 003°49'0 0.0
2014-Apr-10 23:34N 51°20' E 003°49'0 0.0
2014-Apr-10 22:33N 51°20' E 003°49'0 0.0
2014-Apr-10 21:34N 51°20' E 003°49'0 0.0
2014-Apr-10 20:34N 51°20' E 003°49'0 0.0
2014-Apr-10 19:34N 51°20' E 003°49'0 0.0
2014-Apr-10 18:34N 51°20' E 003°49'0 0.0
2014-Apr-10 17:34N 51°20' E 003°49'0 0.0
2014-Apr-10 16:34N 51°20' E 003°49'0 0.0
2014-Apr-10 15:34N 51°20' E 003°49'0 0.0
2014-Apr-10 14:33N 51°20' E 003°49'0 0.0
2014-Apr-10 13:34N 51°20' E 003°49'0 0.0
2014-Apr-10 12:34N 51°20' E 003°49'0 0.0
2014-Apr-10 11:34N 51°20' E 003°49'0 0.0
2014-Apr-10 10:34N 51°20' E 003°49'0 0.0
2014-Apr-10 09:33N 51°20' E 003°49'0 0.0
2014-Apr-10 08:34N 51°20' E 003°49'0 0.0
2014-Apr-10 07:34N 51°20' E 003°49'0 0.0
2014-Apr-10 06:34N 51°20' E 003°49'0 0.0
2014-Apr-10 05:34N 51°20' E 003°49'0 0.0
2014-Apr-10 04:34N 51°20' E 003°49'0 0.0
2014-Apr-10 03:34N 51°20' E 003°49'0 0.0
2014-Apr-10 02:33N 51°20' E 003°49'0 0.0
2014-Apr-10 01:34N 51°20' E 003°49'0 0.0
2014-Apr-10 00:34N 51°20' E 003°49'1 0.6
2014-Apr-09 23:34N 51°20' E 003°49'4 4.0
2014-Apr-09 22:34N 51°16' E 003°50'6 6.4
2014-Apr-09 21:33N 51°10' E 003°47'1 0.6
2014-Apr-09 20:34N 51°09' E 003°47'7 6.8
2014-Apr-09 19:34N 51°16' E 003°50'4 4.2
2014-Apr-09 18:33N 51°20' E 003°49'1 0.5
2014-Apr-09 17:34N 51°20' E 003°49'0 0.0
2014-Apr-09 16:34N 51°20' E 003°49'0 0.0
2014-Apr-09 15:33N 51°20' E 003°49'0 0.0
2014-Apr-09 14:34N 51°20' E 003°49'0 0.0
2014-Apr-09 13:33N 51°20' E 003°49'0 0.0
2014-Apr-09 12:33N 51°20' E 003°49'0 0.0
2014-Apr-09 11:33N 51°20' E 003°49'0 0.0
2014-Apr-09 10:33N 51°20' E 003°49'0 0.0
2014-Apr-09 09:33N 51°20' E 003°49'0 0.0
2014-Apr-09 08:33N 51°20' E 003°49'0 0.0
2014-Apr-09 07:33N 51°20' E 003°49'0 0.0
2014-Apr-09 06:33N 51°20' E 003°49'0 0.0
2014-Apr-09 05:34N 51°20' E 003°49'0 0.0
2014-Apr-09 04:33N 51°20' E 003°49'0 0.0
2014-Apr-09 03:34N 51°20' E 003°49'0 0.0
2014-Apr-09 02:33N 51°20' E 003°49'1 0.6
2014-Apr-09 01:33N 51°20' E 003°49'1 0.6
2014-Apr-09 00:33N 51°19' E 003°50'3 2.6
2014-Apr-08 23:33N 51°17' E 003°51'0 0.3
2014-Apr-08 22:33N 51°16' E 003°51'0 0.0
2014-Apr-08 21:30N 51°16' E 003°51'0 0.0
2014-Apr-08 20:29N 51°16' E 003°51'0 0.0
2014-Apr-08 19:30N 51°16' E 003°51'0 0.0
2014-Apr-08 18:22N 51°16' E 003°51'4 4.4
2014-Apr-08 17:33N 51°20' E 003°49'2 2.3
2014-Apr-08 16:33N 51°21' E 003°46'0 0.1
2014-Apr-08 15:33N 51°21' E 003°46'2 1.9
2014-Apr-08 14:33N 51°20' E 003°49'0 0.0
2014-Apr-08 13:34N 51°20' E 003°49'0 0.0
2014-Apr-08 12:33N 51°20' E 003°49'0 0.0
2014-Apr-08 11:33N 51°20' E 003°49'0 0.0
2014-Apr-08 10:33N 51°20' E 003°49'0 0.0
2014-Apr-08 09:34N 51°20' E 003°49'0 0.0
2014-Apr-08 08:34N 51°20' E 003°49'0 0.0
2014-Apr-08 07:34N 51°20' E 003°49'0 0.0
2014-Apr-08 06:33N 51°20' E 003°49'0 0.0
2014-Apr-08 05:34N 51°20' E 003°49'0 0.0
2014-Apr-08 04:34N 51°20' E 003°49'0 0.0
2014-Apr-08 03:33N 51°20' E 003°49'0 0.0
2014-Apr-08 02:33N 51°20' E 003°49'4 4.4
2014-Apr-08 01:34N 51°23' E 003°43'1111.4
2014-Apr-08 00:33N 51°30' E 003°28'1211.2
2014-Apr-07 23:29N 51°40' E 003°18'31 8.0
2014-Apr-07 19:34N 52°02' E 003°54'13 4.2
2014-Apr-07 16:30N 51°55' E 004°12'6 6.1
2014-Apr-07 15:32N 51°59' E 004°05'5 5.1
2014-Apr-07 14:34N 51°60' E 003°57'30 5.0
2014-Apr-07 08:30N 51°41' E 003°18'7 7.6
2014-Apr-07 07:34N 51°35' E 003°24'8 7.6
2014-Apr-07 06:33N 51°29' E 003°30'5 5.1
2014-Apr-07 05:33N 51°26' E 003°38'3 3.1
2014-Apr-07 04:33N 51°27' E 003°43'  

Dump ship's entire track history

sailing weather and tide predictions

Multratug 19 — PCHZ — position and weather